Time;durP1;ratioP1;P1;durP2;ratioP2;P2;SDS_P1;SDS_P2;PMS_P1;PMS_P2;Temp;Humidity;BMP_temperature;BMP_pressure;BME280_temperature;BME280_humidity;BME280_pressure;Samples;Min_cycle;Max_cycle;Signal;HPM_P1;HPM_P2
2023/04/20 00:01:46;;;;;;;15.05;9.13;;;11.20;99.90;;;;;;4885570;29;20060;-77
2023/04/20 00:04:14;;;;;;;13.23;9.57;;;11.30;99.90;;;;;;4876681;29;20104;-77
2023/04/20 00:06:42;;;;;;;15.82;8.90;;;11.30;99.90;;;;;;4876648;29;20447;-76
2023/04/20 00:09:09;;;;;;;15.50;8.73;;;11.30;99.90;;;;;;4875150;29;20021;-77
2023/04/20 00:11:35;;;;;;;14.63;8.85;;;11.20;99.90;;;;;;4877328;29;20520;-76
2023/04/20 00:14:01;;;;;;;18.08;10.18;;;11.20;99.90;;;;;;4877345;29;20043;-73
2023/04/20 00:16:27;;;;;;;15.90;8.65;;;11.10;99.90;;;;;;4891623;29;20028;-76
2023/04/20 00:18:53;;;;;;;16.42;8.93;;;11.10;99.90;;;;;;4897932;29;20056;-78
2023/04/20 00:21:23;;;;;;;15.13;9.07;;;11.10;99.90;;;;;;4897019;29;20112;-76
2023/04/20 00:23:52;;;;;;;16.80;9.77;;;11.00;99.90;;;;;;4897805;29;20492;-76
2023/04/20 00:26:18;;;;;;;17.98;10.52;;;11.00;99.90;;;;;;4897555;29;20422;-73
2023/04/20 00:28:50;;;;;;;16.38;9.90;;;11.00;99.90;;;;;;4881013;29;20103;-76
2023/04/20 00:31:17;;;;;;;15.90;10.27;;;11.10;99.90;;;;;;4896201;29;20377;-78
2023/04/20 00:33:42;;;;;;;18.67;10.20;;;11.00;99.90;;;;;;4897316;29;20176;-78
2023/04/20 00:36:08;;;;;;;17.50;10.70;;;11.00;99.90;;;;;;4884257;29;20029;-74
2023/04/20 00:38:35;;;;;;;18.00;10.07;;;10.90;99.90;;;;;;4872795;29;20020;-75
2023/04/20 00:41:01;;;;;;;16.05;10.30;;;11.00;99.90;;;;;;4895153;29;20032;-77
2023/04/20 00:43:30;;;;;;;15.90;9.65;;;10.90;99.90;;;;;;4880229;29;20063;-77
2023/04/20 00:45:56;;;;;;;15.27;10.48;;;10.90;99.90;;;;;;4893159;29;20477;-78
2023/04/20 00:48:22;;;;;;;15.40;9.30;;;10.90;99.90;;;;;;4862080;29;20137;-78
2023/04/20 00:50:49;;;;;;;14.43;9.02;;;10.90;99.90;;;;;;4876731;29;20036;-76
2023/04/20 00:53:17;;;;;;;15.75;10.48;;;10.90;99.90;;;;;;4871395;29;20389;-75
2023/04/20 00:55:44;;;;;;;16.67;9.40;;;11.00;99.90;;;;;;4857436;29;20079;-77
2023/04/20 00:58:11;;;;;;;14.90;9.50;;;10.90;99.90;;;;;;4861618;29;20032;-73
2023/04/20 01:00:39;;;;;;;14.77;9.90;;;10.90;99.90;;;;;;4876417;29;20047;-78
2023/04/20 01:03:06;;;;;;;15.43;8.98;;;10.90;99.90;;;;;;4894326;29;20031;-78
2023/04/20 01:05:32;;;;;;;14.60;8.73;;;10.90;99.90;;;;;;4895956;29;20528;-77
2023/04/20 01:07:58;;;;;;;13.27;8.25;;;10.90;99.90;;;;;;4897204;29;20020;-76
2023/04/20 01:10:28;;;;;;;14.52;9.45;;;10.90;99.90;;;;;;4880285;29;20039;-77
2023/04/20 01:12:54;;;;;;;13.73;8.55;;;10.90;99.90;;;;;;4896883;29;20032;-77
2023/04/20 01:15:20;;;;;;;14.25;7.88;;;10.80;99.90;;;;;;4875300;29;20051;-74
2023/04/20 01:17:46;;;;;;;17.48;8.98;;;10.90;99.90;;;;;;4875540;29;20035;-77
2023/04/20 01:20:12;;;;;;;17.00;9.52;;;10.90;99.90;;;;;;4878592;29;20127;-78
2023/04/20 01:22:48;;;;;;;16.73;9.20;;;10.80;99.90;;;;;;4880277;29;20044;-77
2023/04/20 01:25:15;;;;;;;16.08;9.35;;;10.80;99.90;;;;;;4860997;29;20446;-77
2023/04/20 01:27:41;;;;;;;15.93;9.57;;;10.80;99.90;;;;;;4859609;29;20029;-78
2023/04/20 01:30:11;;;;;;;15.52;9.07;;;10.80;99.90;;;;;;4864474;29;20033;-77
2023/04/20 01:32:38;;;;;;;16.83;9.82;;;10.80;99.90;;;;;;4864672;29;20021;-72
2023/04/20 01:35:05;;;;;;;14.80;9.23;;;10.90;99.90;;;;;;4865959;29;20474;-76
2023/04/20 01:37:32;;;;;;;15.23;10.20;;;10.90;99.90;;;;;;4856153;29;20068;-79
2023/04/20 01:40:02;;;;;;;13.32;8.10;;;10.90;99.90;;;;;;4847939;29;20033;-78
2023/04/20 01:42:28;;;;;;;14.45;8.55;;;10.80;99.90;;;;;;4865742;29;20040;-75
2023/04/20 01:44:58;;;;;;;15.73;9.13;;;10.80;99.90;;;;;;4870674;29;20040;-76
2023/04/20 01:47:24;;;;;;;15.15;8.80;;;10.80;99.90;;;;;;4868685;29;20040;-76
2023/04/20 01:49:50;;;;;;;14.70;9.48;;;10.80;99.90;;;;;;4874342;29;20485;-77
2023/04/20 01:52:17;;;;;;;14.68;8.95;;;10.80;99.90;;;;;;4890488;29;20028;-77
2023/04/20 01:54:42;;;;;;;17.15;10.05;;;10.80;99.90;;;;;;4895328;29;20033;-74
2023/04/20 01:57:08;;;;;;;16.70;10.48;;;10.80;99.90;;;;;;4884192;29;20460;-77
2023/04/20 01:59:34;;;;;;;16.55;10.18;;;10.80;99.90;;;;;;4879828;29;20473;-76
2023/04/20 02:02:00;;;;;;;16.02;10.02;;;10.70;99.90;;;;;;4896390;29;20033;-77
2023/04/20 02:04:26;;;;;;;14.30;9.20;;;10.70;99.90;;;;;;4891404;29;20032;-76
2023/04/20 02:06:52;;;;;;;16.13;10.75;;;10.70;99.90;;;;;;4876239;29;20033;-77
2023/04/20 02:09:18;;;;;;;19.42;11.45;;;10.70;99.90;;;;;;4879466;29;20044;-75
2023/04/20 02:11:44;;;;;;;18.05;11.60;;;10.70;99.90;;;;;;4879769;29;20492;-78
2023/04/20 02:14:10;;;;;;;17.23;10.38;;;10.60;99.90;;;;;;4896270;29;20032;-77
2023/04/20 02:16:36;;;;;;;17.73;11.30;;;10.60;99.90;;;;;;4879430;29;20033;-77
2023/04/20 02:19:02;;;;;;;14.55;10.07;;;10.60;99.90;;;;;;4896043;29;20072;-77
2023/04/20 02:21:28;;;;;;;16.42;10.73;;;10.60;99.90;;;;;;4879509;29;20029;-77
2023/04/20 02:23:53;;;;;;;19.77;11.35;;;10.50;99.90;;;;;;4896298;29;20025;-76
2023/04/20 02:26:19;;;;;;;21.38;11.30;;;10.60;99.90;;;;;;4896560;29;20036;-77
2023/04/20 02:28:46;;;;;;;19.58;11.30;;;10.50;99.90;;;;;;4878499;29;20399;-77
2023/04/20 02:31:12;;;;;;;16.48;11.57;;;10.50;99.90;;;;;;4899493;29;20048;-78
2023/04/20 02:33:37;;;;;;;18.52;11.98;;;10.50;99.90;;;;;;4882650;29;20032;-76
2023/04/20 02:36:04;;;;;;;18.70;11.30;;;10.50;99.90;;;;;;4882940;29;20442;-76
2023/04/20 02:38:33;;;;;;;17.58;11.88;;;10.50;99.90;;;;;;4881668;29;20085;-76
2023/04/20 02:40:59;;;;;;;18.85;12.75;;;10.50;99.90;;;;;;4874405;29;20048;-78
2023/04/20 02:43:26;;;;;;;18.63;11.45;;;10.50;99.90;;;;;;4879295;29;20362;-79
2023/04/20 02:45:52;;;;;;;18.17;11.90;;;10.50;99.90;;;;;;4883057;29;20393;-77
2023/04/20 02:48:20;;;;;;;17.92;11.65;;;10.50;99.90;;;;;;4879208;29;20049;-76
2023/04/20 02:50:46;;;;;;;19.95;11.98;;;10.50;99.90;;;;;;4873552;29;20021;-77
2023/04/20 02:53:19;;;;;;;18.65;11.57;;;10.40;99.90;;;;;;4869557;29;20040;-76
2023/04/20 02:55:50;;;;;;;18.02;11.32;;;10.40;99.90;;;;;;4882153;29;20064;-76
2023/04/20 02:58:31;;;;;;;19.85;12.48;;;10.40;99.90;;;;;;4882505;29;20075;-77
2023/04/20 03:01:15;;;;;;;18.92;12.05;;;10.40;99.90;;;;;;4876952;29;20506;-76
2023/04/20 03:03:44;;;;;;;18.02;12.13;;;10.40;99.90;;;;;;4882474;29;20447;-77
2023/04/20 03:06:11;;;;;;;17.52;11.27;;;10.40;99.90;;;;;;4882699;29;20056;-77
2023/04/20 03:08:39;;;;;;;17.67;11.32;;;10.40;99.90;;;;;;4882022;29;20096;-76
2023/04/20 03:11:25;;;;;;;17.77;11.10;;;10.40;99.90;;;;;;4899000;29;20087;-77
2023/04/20 03:13:51;;;;;;;17.25;10.63;;;10.40;99.90;;;;;;4882038;29;20033;-78
2023/04/20 03:16:17;;;;;;;21.38;12.60;;;10.40;99.90;;;;;;4881369;29;20051;-76
2023/04/20 03:18:47;;;;;;;16.50;10.55;;;10.30;99.90;;;;;;4898833;29;20378;-75
2023/04/20 03:21:13;;;;;;;17.98;10.98;;;10.40;99.90;;;;;;4882007;29;20035;-77
2023/04/20 03:23:39;;;;;;;18.25;10.98;;;10.30;99.90;;;;;;4881336;29;20055;-77
2023/04/20 03:26:06;;;;;;;18.83;10.55;;;10.30;99.90;;;;;;4882231;29;20039;-77
2023/04/20 03:28:52;;;;;;;17.88;11.30;;;10.30;99.90;;;;;;4878090;29;20055;-77
2023/04/20 03:31:21;;;;;;;19.42;11.98;;;10.30;99.90;;;;;;4876358;29;20041;-78
2023/04/20 03:33:48;;;;;;;19.27;12.00;;;10.30;99.90;;;;;;4881689;29;20472;-77
2023/04/20 03:36:14;;;;;;;20.80;11.05;;;10.30;99.90;;;;;;4898558;29;20116;-77
2023/04/20 03:38:41;;;;;;;18.13;12.00;;;10.30;99.90;;;;;;4881837;29;20032;-76
2023/04/20 03:41:07;;;;;;;19.30;12.95;;;10.30;99.90;;;;;;4898018;29;20028;-76
2023/04/20 03:43:33;;;;;;;22.70;13.13;;;10.30;99.90;;;;;;4881981;29;20021;-77
2023/04/20 03:45:59;;;;;;;19.30;12.10;;;10.30;99.90;;;;;;4881029;29;20070;-76
2023/04/20 03:48:25;;;;;;;21.05;12.57;;;10.30;99.90;;;;;;4880405;29;20044;-74
2023/04/20 03:50:51;;;;;;;21.85;12.88;;;10.30;99.90;;;;;;4868977;29;20037;-72
2023/04/20 03:53:17;;;;;;;21.02;13.02;;;10.30;99.90;;;;;;4880822;29;20040;-76
2023/04/20 03:55:43;;;;;;;22.75;13.68;;;10.30;99.90;;;;;;4881279;29;20044;-76
2023/04/20 03:58:13;;;;;;;19.92;13.02;;;10.20;99.90;;;;;;4881474;29;20032;-78
2023/04/20 04:00:49;;;;;;;22.55;13.63;;;10.20;99.90;;;;;;4881545;29;20043;-76
2023/04/20 04:03:15;;;;;;;22.35;13.02;;;10.30;99.90;;;;;;4880905;29;20032;-77
2023/04/20 04:05:40;;;;;;;19.98;13.73;;;10.40;99.90;;;;;;4880552;29;20037;-78
2023/04/20 04:08:06;;;;;;;21.42;13.50;;;10.50;99.90;;;;;;4853842;29;20114;-78
2023/04/20 04:10:34;;;;;;;19.38;14.48;;;10.40;99.90;;;;;;4871843;29;20025;-74
2023/04/20 04:12:59;;;;;;;21.85;12.98;;;10.40;99.90;;;;;;4870603;29;20021;-78
2023/04/20 04:15:25;;;;;;;19.92;12.30;;;10.20;99.90;;;;;;4864344;29;20051;-76
2023/04/20 04:17:58;;;;;;;19.75;12.75;;;10.30;99.90;;;;;;4878390;29;20108;-77
2023/04/20 04:20:24;;;;;;;20.80;13.73;;;10.20;99.90;;;;;;4862552;29;20148;-76
2023/04/20 04:22:51;;;;;;;24.60;13.30;;;10.30;99.90;;;;;;4862205;29;20061;-78
2023/04/20 04:25:39;;;;;;;20.75;13.15;;;10.20;99.90;;;;;;4812836;29;20043;-76
2023/04/20 04:28:06;;;;;;;20.77;13.35;;;10.20;99.90;;;;;;4805059;29;20393;-76
2023/04/20 04:30:34;;;;;;;24.77;15.35;;;10.30;99.90;;;;;;4802661;29;20051;-72
2023/04/20 04:33:03;;;;;;;20.98;13.40;;;10.20;99.90;;;;;;4806418;29;20038;-77
2023/04/20 04:35:30;;;;;;;22.85;14.18;;;10.20;99.90;;;;;;4794328;29;20475;-78
2023/04/20 04:37:56;;;;;;;21.27;14.35;;;10.10;99.90;;;;;;4795471;29;20035;-76
2023/04/20 04:40:23;;;;;;;23.38;14.65;;;10.10;99.90;;;;;;4801641;29;20509;-77
2023/04/20 04:42:52;;;;;;;22.08;14.25;;;10.00;99.90;;;;;;4805204;29;20043;-78
2023/04/20 04:45:18;;;;;;;20.85;13.38;;;10.00;99.90;;;;;;4802518;29;20038;-76
2023/04/20 04:47:45;;;;;;;23.60;15.13;;;10.00;99.90;;;;;;4795530;29;20037;-74
2023/04/20 04:50:11;;;;;;;26.60;15.18;;;10.00;99.90;;;;;;4816827;29;20051;-78
2023/04/20 04:52:37;;;;;;;28.95;16.13;;;10.10;99.90;;;;;;4785422;29;20125;-74
2023/04/20 04:55:07;;;;;;;25.50;15.52;;;10.10;99.90;;;;;;4818861;29;20149;-78
2023/04/20 04:57:32;;;;;;;25.70;16.00;;;10.20;99.90;;;;;;4815585;29;20030;-78
2023/04/20 04:59:58;;;;;;;22.70;15.15;;;10.20;99.90;;;;;;4816497;29;20114;-74
2023/04/20 05:02:24;;;;;;;26.67;17.60;;;10.20;99.90;;;;;;4827795;29;20041;-78
2023/04/20 05:04:50;;;;;;;23.38;15.82;;;10.50;99.90;;;;;;4876657;29;20393;-78
2023/04/20 05:07:16;;;;;;;24.30;14.77;;;11.50;99.90;;;;;;4877367;29;20025;-78
2023/04/20 05:09:42;;;;;;;22.88;14.85;;;12.00;99.90;;;;;;4876767;29;20111;-78
2023/04/20 05:12:07;;;;;;;22.20;14.95;;;11.60;99.90;;;;;;4878668;29;20529;-74
2023/04/20 05:14:34;;;;;;;22.67;14.00;;;11.70;99.90;;;;;;4878205;29;20084;-79
2023/04/20 05:17:00;;;;;;;19.23;14.18;;;11.60;99.90;;;;;;4878434;29;20067;-77
2023/04/20 05:19:26;;;;;;;20.98;13.85;;;11.60;99.90;;;;;;4894793;29;20052;-75
2023/04/20 05:21:51;;;;;;;26.45;15.05;;;11.80;99.90;;;;;;4916045;29;20028;-72
2023/04/20 05:24:18;;;;;;;21.52;14.65;;;11.90;99.90;;;;;;4915780;29;20468;-76
2023/04/20 05:26:45;;;;;;;22.77;15.27;;;11.90;99.90;;;;;;4898047;29;20496;-76
2023/04/20 05:29:11;;;;;;;23.13;14.70;;;11.90;99.90;;;;;;4916633;29;20111;-75
2023/04/20 05:31:37;;;;;;;25.48;15.15;;;12.00;99.90;;;;;;4915769;29;20115;-76
2023/04/20 05:34:04;;;;;;;23.98;15.98;;;12.20;99.90;;;;;;4914936;29;20040;-78
2023/04/20 05:36:32;;;;;;;23.35;15.93;;;12.40;99.90;;;;;;4916153;29;20042;-79
2023/04/20 05:38:58;;;;;;;23.75;14.98;;;12.50;99.90;;;;;;4915975;29;20072;-77
2023/04/20 05:41:26;;;;;;;24.40;15.63;;;12.80;99.90;;;;;;4914737;29;20428;-77
2023/04/20 05:43:53;;;;;;;21.48;14.80;;;12.90;99.90;;;;;;4915783;29;20077;-78
2023/04/20 05:46:19;;;;;;;21.40;13.65;;;13.10;99.90;;;;;;4897928;29;20028;-74
2023/04/20 05:48:45;;;;;;;21.80;12.93;;;13.00;99.90;;;;;;4915221;29;20035;-75
2023/04/20 05:51:11;;;;;;;22.10;14.25;;;13.00;99.90;;;;;;4915927;29;20032;-75
2023/04/20 05:53:37;;;;;;;21.10;14.00;;;12.90;99.90;;;;;;4916033;29;20396;-72
2023/04/20 05:56:03;;;;;;;18.13;12.10;;;13.00;99.90;;;;;;4915553;29;20032;-75
2023/04/20 05:58:31;;;;;;;23.38;15.00;;;12.90;99.90;;;;;;4915094;29;20075;-73
2023/04/20 06:00:57;;;;;;;20.50;13.90;;;12.90;99.90;;;;;;4915252;29;20035;-73
2023/04/20 06:03:23;;;;;;;22.20;13.45;;;13.20;99.90;;;;;;4915825;29;20028;-76
2023/04/20 06:05:50;;;;;;;23.48;14.25;;;13.00;99.90;;;;;;4917950;29;20464;-74
2023/04/20 06:08:17;;;;;;;19.63;13.13;;;13.20;99.90;;;;;;4902445;29;20040;-77
2023/04/20 06:10:43;;;;;;;20.35;13.98;;;13.20;99.90;;;;;;4918688;29;20024;-72
2023/04/20 06:13:09;;;;;;;21.75;13.38;;;13.60;99.90;;;;;;4918846;29;20040;-77
2023/04/20 06:15:35;;;;;;;25.00;14.13;;;13.60;99.90;;;;;;4918450;29;20043;-73
2023/04/20 06:18:01;;;;;;;22.90;14.77;;;13.50;99.90;;;;;;4919061;29;20054;-75
2023/04/20 06:20:27;;;;;;;22.65;13.90;;;13.60;99.90;;;;;;4918235;29;20040;-75
2023/04/20 06:22:53;;;;;;;27.27;14.48;;;13.70;99.90;;;;;;4918498;29;20040;-73
2023/04/20 06:25:19;;;;;;;18.75;13.15;;;13.70;99.90;;;;;;4919425;29;20461;-72
2023/04/20 06:27:45;;;;;;;20.90;12.18;;;13.80;99.90;;;;;;4918955;29;20111;-74
2023/04/20 06:30:11;;;;;;;19.42;13.52;;;13.80;99.90;;;;;;4918755;29;20453;-74
2023/04/20 06:32:37;;;;;;;19.23;13.32;;;13.80;99.90;;;;;;4918801;29;20036;-76
2023/04/20 06:35:04;;;;;;;23.35;14.57;;;14.00;99.90;;;;;;4918668;29;20048;-75
2023/04/20 06:37:30;;;;;;;17.40;12.13;;;14.30;99.90;;;;;;4918611;29;20035;-77
2023/04/20 06:39:56;;;;;;;23.50;14.02;;;14.40;99.90;;;;;;4918698;29;20076;-75
2023/04/20 06:42:21;;;;;;;22.42;14.43;;;14.60;99.90;;;;;;4917681;29;20025;-76
2023/04/20 06:44:48;;;;;;;21.85;13.32;;;14.50;99.90;;;;;;4889068;29;20031;-75
2023/04/20 06:47:14;;;;;;;23.27;13.52;;;14.80;99.90;;;;;;4918209;29;20027;-75
2023/04/20 06:49:40;;;;;;;20.15;12.77;;;14.90;99.90;;;;;;4917835;29;20050;-76
2023/04/20 06:52:06;;;;;;;20.17;12.57;;;14.60;99.90;;;;;;4918272;29;20024;-75
2023/04/20 06:54:32;;;;;;;20.08;12.77;;;14.70;99.90;;;;;;4918408;29;20044;-76
2023/04/20 06:56:57;;;;;;;20.70;13.82;;;14.60;99.90;;;;;;4918132;29;20025;-77
2023/04/20 06:59:23;;;;;;;20.40;13.75;;;14.50;99.90;;;;;;4918267;29;20036;-76
2023/04/20 07:01:49;;;;;;;22.73;14.35;;;14.80;99.90;;;;;;4918120;29;20060;-76
2023/04/20 07:04:15;;;;;;;19.80;13.40;;;14.80;99.90;;;;;;4917810;29;20361;-74
2023/04/20 07:06:41;;;;;;;19.63;13.80;;;14.80;99.90;;;;;;4916942;29;20043;-72
2023/04/20 07:09:08;;;;;;;19.52;13.45;;;15.00;99.90;;;;;;4907032;29;20020;-76
2023/04/20 07:11:34;;;;;;;21.85;15.05;;;14.90;99.90;;;;;;4915192;29;20040;-77
2023/04/20 07:13:59;;;;;;;22.40;14.07;;;14.80;99.90;;;;;;4916378;29;20031;-77
2023/04/20 07:16:26;;;;;;;26.70;13.32;;;14.90;99.90;;;;;;4915488;29;20036;-76
2023/04/20 07:18:51;;;;;;;21.40;13.48;;;14.90;99.90;;;;;;4917630;29;20123;-77
2023/04/20 07:21:17;;;;;;;21.55;14.20;;;14.80;99.90;;;;;;4915492;29;20123;-76
2023/04/20 07:23:43;;;;;;;19.15;12.73;;;15.00;99.90;;;;;;4917472;29;20028;-76
2023/04/20 07:26:09;;;;;;;20.42;13.48;;;15.10;99.90;;;;;;4915998;29;20028;-77
2023/04/20 07:28:35;;;;;;;28.02;13.20;;;15.30;99.90;;;;;;4915995;29;20405;-77
2023/04/20 07:31:01;;;;;;;21.50;12.90;;;15.50;99.90;;;;;;4914112;29;20472;-75
2023/04/20 07:33:28;;;;;;;23.17;15.02;;;15.60;99.90;;;;;;4916445;29;20035;-77
2023/04/20 07:35:54;;;;;;;20.67;14.43;;;15.40;99.90;;;;;;4914048;29;20115;-76
2023/04/20 07:38:20;;;;;;;18.95;12.85;;;15.90;99.90;;;;;;4916930;29;20116;-75
2023/04/20 07:40:46;;;;;;;19.20;12.52;;;16.00;99.90;;;;;;4915709;29;20119;-73
2023/04/20 07:43:11;;;;;;;20.20;13.95;;;16.20;99.90;;;;;;4913914;29;20190;-77
2023/04/20 07:45:41;;;;;;;18.95;12.57;;;16.10;99.90;;;;;;4916201;29;20029;-76
2023/04/20 07:48:08;;;;;;;19.50;13.77;;;16.10;99.90;;;;;;4916327;29;20634;-77
2023/04/20 07:50:34;;;;;;;20.75;14.50;;;16.10;99.90;;;;;;4912950;29;20052;-76
2023/04/20 07:53:01;;;;;;;20.83;14.27;;;16.00;99.90;;;;;;4917425;29;20028;-77
2023/04/20 07:55:27;;;;;;;22.27;14.70;;;16.10;99.90;;;;;;4917202;29;20544;-77
2023/04/20 07:57:52;;;;;;;23.38;14.52;;;16.30;99.90;;;;;;4909341;29;20029;-78
2023/04/20 08:00:19;;;;;;;18.73;13.02;;;16.40;99.90;;;;;;4906975;29;20041;-72
2023/04/20 08:02:44;;;;;;;21.67;13.55;;;16.70;99.90;;;;;;4915544;29;20079;-77
2023/04/20 08:05:10;;;;;;;21.58;13.18;;;16.80;99.90;;;;;;4903884;29;20040;-73
2023/04/20 08:07:37;;;;;;;26.63;14.00;;;16.80;99.90;;;;;;4915219;29;20031;-74
2023/04/20 08:10:03;;;;;;;23.17;13.50;;;17.10;99.90;;;;;;4917254;29;20460;-77
2023/04/20 08:12:29;;;;;;;23.45;15.32;;;17.00;99.90;;;;;;4904665;29;20036;-77
2023/04/20 08:14:59;;;;;;;23.77;15.73;;;16.80;99.90;;;;;;4908399;29;20083;-74
2023/04/20 08:17:25;;;;;;;22.73;15.05;;;16.60;99.90;;;;;;4916369;29;20089;-76
2023/04/20 08:19:51;;;;;;;22.08;15.73;;;16.60;99.90;;;;;;4912917;29;20407;-76
2023/04/20 08:22:17;;;;;;;24.35;14.52;;;16.90;99.90;;;;;;4915358;29;20032;-76
2023/04/20 08:24:43;;;;;;;20.98;14.07;;;17.00;99.90;;;;;;4916797;29;20103;-78
2023/04/20 08:27:09;;;;;;;21.50;13.85;;;17.20;99.90;;;;;;4914869;29;20179;-77
2023/04/20 08:29:35;;;;;;;22.65;13.93;;;17.50;99.90;;;;;;4906645;29;20532;-77
2023/04/20 08:32:02;;;;;;;19.65;13.20;;;17.10;99.90;;;;;;4914963;29;20032;-73
2023/04/20 08:34:28;;;;;;;20.70;13.90;;;16.80;99.90;;;;;;4914427;29;20104;-76
2023/04/20 08:36:54;;;;;;;18.90;12.18;;;16.80;99.90;;;;;;4916588;29;20628;-75
2023/04/20 08:39:22;;;;;;;21.10;12.75;;;16.90;99.90;;;;;;4914787;29;20043;-75
2023/04/20 08:41:52;;;;;;;19.98;11.05;;;17.00;99.90;;;;;;4916124;29;20099;-71
2023/04/20 08:44:19;;;;;;;18.13;12.00;;;17.00;99.90;;;;;;4914806;29;20108;-75
2023/04/20 08:46:47;;;;;;;18.23;11.55;;;17.20;99.90;;;;;;4909294;29;20033;-76
2023/04/20 08:49:17;;;;;;;18.38;11.27;;;16.90;99.90;;;;;;4907769;29;20032;-73
2023/04/20 08:51:46;;;;;;;18.15;11.38;;;17.40;99.90;;;;;;4917045;29;20028;-76
2023/04/20 08:54:12;;;;;;;16.55;10.50;;;17.60;99.90;;;;;;4916437;29;20102;-73
2023/04/20 08:56:41;;;;;;;18.70;11.13;;;17.80;99.90;;;;;;4915779;29;20061;-75
2023/04/20 08:59:12;;;;;;;18.25;10.57;;;17.60;99.90;;;;;;4916187;29;20080;-79
2023/04/20 09:01:40;;;;;;;15.95;9.55;;;17.80;99.90;;;;;;4916544;29;20126;-74
2023/04/20 09:04:20;;;;;;;18.52;11.25;;;18.00;99.90;;;;;;4916080;29;20361;-75
2023/04/20 09:06:51;;;;;;;17.25;9.25;;;18.00;99.90;;;;;;4916561;29;20114;-75
2023/04/20 09:09:18;;;;;;;16.10;10.02;;;18.20;99.90;;;;;;4916520;29;20026;-77
2023/04/20 09:11:45;;;;;;;14.57;8.85;;;18.10;99.90;;;;;;4916173;29;20028;-75
2023/04/20 09:14:14;;;;;;;15.75;9.05;;;18.30;99.90;;;;;;4915847;29;20061;-71
2023/04/20 09:16:52;;;;;;;17.63;10.07;;;18.20;99.50;;;;;;4915545;29;20036;-72
2023/04/20 09:19:23;;;;;;;16.60;8.45;;;18.00;99.90;;;;;;4917358;29;20412;-76
2023/04/20 09:21:50;;;;;;;15.80;9.68;;;18.50;99.90;;;;;;4914281;29;20059;-75
2023/04/20 09:24:18;;;;;;;13.25;8.35;;;18.40;99.90;;;;;;4912892;29;20551;-72
2023/04/20 09:26:44;;;;;;;14.23;8.52;;;18.50;99.90;;;;;;4915790;29;20032;-77
2023/04/20 09:29:18;;;;;;;14.82;8.88;;;18.40;97.70;;;;;;4913690;29;20064;-72
2023/04/20 09:31:45;;;;;;;16.58;10.00;;;18.50;98.40;;;;;;4914887;29;20036;-77
2023/04/20 09:34:11;;;;;;;16.60;9.70;;;18.60;99.90;;;;;;4910612;29;20125;-72
2023/04/20 09:36:42;;;;;;;15.95;9.68;;;18.70;99.90;;;;;;4914343;29;20071;-78
2023/04/20 09:39:27;;;;;;;16.50;9.65;;;18.90;99.60;;;;;;4912870;29;20104;-74
2023/04/20 09:42:03;;;;;;;15.35;9.45;;;18.80;97.30;;;;;;4915359;29;20028;-78
2023/04/20 09:44:28;;;;;;;14.55;9.18;;;19.20;99.90;;;;;;4906312;29;20465;-75
2023/04/20 09:46:54;;;;;;;16.33;10.27;;;19.40;99.30;;;;;;4912363;29;20060;-72
2023/04/20 09:49:21;;;;;;;15.82;8.80;;;19.30;97.50;;;;;;4914397;29;20392;-75
2023/04/20 09:51:47;;;;;;;15.38;9.00;;;19.20;98.10;;;;;;4913965;29;20032;-76
2023/04/20 09:54:14;;;;;;;17.70;10.43;;;18.90;98.60;;;;;;4903425;29;20056;-75
2023/04/20 09:56:40;;;;;;;15.15;9.23;;;18.70;97.20;;;;;;4910435;29;20044;-73
2023/04/20 09:59:07;;;;;;;13.50;8.00;;;19.20;99.00;;;;;;4915064;29;20473;-74
2023/04/20 10:01:34;;;;;;;14.85;9.13;;;19.70;98.40;;;;;;4915647;29;20028;-76
2023/04/20 10:04:02;;;;;;;16.15;8.45;;;19.50;96.70;;;;;;4913550;29;20020;-76
2023/04/20 10:06:30;;;;;;;14.50;8.80;;;19.00;97.80;;;;;;4908588;29;20032;-74
2023/04/20 10:08:57;;;;;;;13.15;8.68;;;18.50;95.70;;;;;;4914475;29;20547;-73
2023/04/20 10:11:28;;;;;;;14.82;8.18;;;18.40;95.90;;;;;;4914283;29;20036;-73
2023/04/20 10:13:55;;;;;;;14.27;8.43;;;18.60;96.30;;;;;;4915090;29;20043;-71
2023/04/20 10:16:21;;;;;;;14.32;7.50;;;19.00;96.30;;;;;;4913495;29;20067;-76
2023/04/20 10:19:00;;;;;;;15.63;8.63;;;19.20;95.60;;;;;;4915185;29;20171;-74
2023/04/20 10:21:28;;;;;;;12.88;7.00;;;19.50;97.50;;;;;;4913220;29;20131;-72
2023/04/20 10:23:54;;;;;;;13.65;7.38;;;19.60;97.00;;;;;;4913819;29;20144;-72
2023/04/20 10:26:20;;;;;;;12.85;7.35;;;19.70;96.30;;;;;;4910778;29;20042;-75
2023/04/20 10:28:46;;;;;;;12.30;7.45;;;19.80;95.40;;;;;;4913616;29;20099;-76
2023/04/20 10:31:14;;;;;;;15.25;9.10;;;19.90;96.60;;;;;;4913247;29;20036;-75
2023/04/20 10:33:55;;;;;;;19.67;8.02;;;19.70;96.00;;;;;;4910632;29;20100;-76
2023/04/20 10:36:28;;;;;;;12.45;7.25;;;20.00;96.70;;;;;;4910987;29;20047;-72
2023/04/20 10:38:54;;;;;;;;;;;20.50;95.90;;;;;;4915349;29;20384;-72
2023/04/20 10:41:20;;;;;;;17.08;8.82;;;20.50;96.30;;;;;;4912601;29;19919;-75
2023/04/20 10:43:46;;;;;;;15.23;7.78;;;19.70;96.10;;;;;;4912417;29;20043;-73
2023/04/20 10:46:20;;;;;;;14.48;7.40;;;19.50;95.10;;;;;;4911858;29;20361;-75
2023/04/20 10:48:51;;;;;;;12.60;7.63;;;19.20;93.90;;;;;;4914288;29;20040;-73
2023/04/20 10:51:17;;;;;;;12.65;7.05;;;19.00;95.90;;;;;;4916154;29;20088;-75
2023/04/20 10:53:43;;;;;;;13.45;7.72;;;19.00;95.90;;;;;;4916956;29;20036;-75
2023/04/20 10:56:09;;;;;;;14.38;8.18;;;18.90;97.50;;;;;;4915031;29;20377;-76
2023/04/20 10:58:35;;;;;;;14.52;7.93;;;18.70;97.20;;;;;;4918776;29;20024;-74
2023/04/20 11:01:04;;;;;;;13.48;7.78;;;18.70;96.70;;;;;;4900901;29;20036;-75
2023/04/20 11:03:32;;;;;;;14.48;7.55;;;18.80;94.90;;;;;;4901452;29;20110;-75
2023/04/20 11:06:02;;;;;;;13.00;7.70;;;18.80;94.70;;;;;;4916666;29;20027;-74
2023/04/20 11:08:42;;;;;;;11.70;6.38;;;18.90;95.00;;;;;;4918041;29;20481;-76
2023/04/20 11:11:28;;;;;;;13.82;6.40;;;19.10;96.70;;;;;;4906828;29;20025;-75
2023/04/20 11:14:09;;;;;;;12.95;7.10;;;19.20;95.90;;;;;;4917658;29;20028;-77
2023/04/20 11:16:35;;;;;;;18.58;8.07;;;19.40;95.00;;;;;;4910739;29;20051;-74
2023/04/20 11:19:02;;;;;;;10.40;6.60;;;19.60;97.10;;;;;;4917388;29;20067;-76
2023/04/20 11:21:37;;;;;;;15.82;8.15;;;19.70;94.40;;;;;;4911023;29;20035;-73
2023/04/20 11:24:04;;;;;;;12.13;8.18;;;19.60;97.40;;;;;;4908639;29;20032;-76
2023/04/20 11:26:36;;;;;;;13.48;7.13;;;19.50;95.00;;;;;;4917457;29;20032;-75
2023/04/20 11:29:03;;;;;;;12.75;7.57;;;19.40;95.70;;;;;;4916794;29;20020;-75
2023/04/20 11:31:29;;;;;;;12.55;6.20;;;19.30;95.20;;;;;;4917250;29;20036;-75
2023/04/20 11:33:56;;;;;;;14.43;8.02;;;19.00;95.80;;;;;;4917480;29;20029;-76
2023/04/20 11:36:23;;;;;;;15.55;6.85;;;18.50;97.00;;;;;;4917777;29;20028;-75
2023/04/20 11:38:49;;;;;;;8.63;4.47;;;17.90;95.90;;;;;;4917539;29;20069;-74
2023/04/20 11:41:16;;;;;;;8.27;4.13;;;17.20;95.00;;;;;;4917801;29;20020;-76
2023/04/20 11:43:42;;;;;;;10.63;3.83;;;16.60;98.00;;;;;;4917552;29;20054;-75
2023/04/20 11:46:20;;;;;;;9.80;4.57;;;15.80;98.10;;;;;;4917146;29;20540;-74
2023/04/20 11:48:46;;;;;;;8.82;4.43;;;15.50;99.90;;;;;;4918631;29;20028;-75
2023/04/20 11:51:13;;;;;;;9.38;5.22;;;15.40;99.90;;;;;;4916731;29;20020;-77
2023/04/20 11:53:40;;;;;;;11.63;4.75;;;15.20;99.90;;;;;;4920436;29;20032;-76
2023/04/20 11:56:07;;;;;;;9.00;5.25;;;15.10;99.90;;;;;;4917438;29;20028;-76
2023/04/20 11:58:33;;;;;;;11.82;5.97;;;15.20;99.90;;;;;;4917021;29;20031;-76
2023/04/20 12:00:59;;;;;;;8.23;4.28;;;15.40;99.90;;;;;;4917074;29;20036;-76
2023/04/20 12:03:25;;;;;;;8.57;5.50;;;15.40;99.90;;;;;;4916710;29;20047;-76
2023/04/20 12:05:51;;;;;;;10.88;5.43;;;15.60;99.90;;;;;;4916948;29;20036;-77
2023/04/20 12:08:17;;;;;;;9.50;5.68;;;15.70;99.90;;;;;;4917207;29;20028;-76
2023/04/20 12:10:43;;;;;;;15.10;7.35;;;15.90;99.90;;;;;;4916879;29;20046;-77
2023/04/20 12:13:09;;;;;;;13.80;8.23;;;16.10;99.90;;;;;;4916754;29;20060;-77
2023/04/20 12:15:38;;;;;;;19.58;12.55;;;16.20;99.90;;;;;;4911585;29;20116;-75
2023/04/20 12:18:04;;;;;;;24.30;16.25;;;16.20;99.90;;;;;;4892895;29;20482;-77
2023/04/20 12:20:30;;;;;;;24.33;14.82;;;16.40;99.90;;;;;;4916685;29;20048;-77
2023/04/20 12:22:57;;;;;;;14.52;8.07;;;16.30;99.90;;;;;;4916709;29;20059;-74
2023/04/20 12:25:22;;;;;;;12.18;6.13;;;16.40;99.90;;;;;;4916987;29;20032;-76
2023/04/20 12:27:48;;;;;;;13.77;5.72;;;16.30;99.90;;;;;;4916663;29;20036;-75
2023/04/20 12:30:15;;;;;;;9.90;6.30;;;16.40;99.90;;;;;;4916338;29;20032;-77
2023/04/20 12:32:41;;;;;;;12.38;6.93;;;16.60;99.90;;;;;;4916663;29;20040;-77